Mountain Pass, California
Current Conditions -  °F | °C
As of 9:56 AM on Thursday 30 Oct 2014 (Local Time) from KHND Reporting Station
Clear Clear  
Wind Chill: 72°   Ceiling: Unl
Heat Index: 72°   Visibility: 10mi
Dew Point: 21°   Wind: 0mph
Humidity: 15%   Direction: NA
Pressure: 30.13"   Gusts: NA
Location:  35.47°N, 115.54°W
Report Text: KHND 301656Z 00000KT 10SM CLR 22/M06 A3013 RMK AO2 T02221061 SLP191
Loading
Personal Weather Stations






























Interactive Weather Map
Tropical Storm Tracking
New forecast layout! Learn more

10-Day Weather Forecast

Advertisements
Track Severe Weather on mobile